Time;durP1;ratioP1;P1;durP2;ratioP2;P2;SDS_P1;SDS_P2;PMS_P1;PMS_P2;Temp;Humidity;BMP_temperature;BMP_pressure;BME280_temperature;BME280_humidity;BME280_pressure;Samples;Min_cycle;Max_cycle;Signal;HPM_P1;HPM_P2
2021/05/28 00:01:20;;;;;;;5.30;4.80;;;;;;;13.31;100.00;102232.08;1776875;81;26198;-73
2021/05/28 00:03:49;;;;;;;4.97;4.30;;;;;;;13.02;100.00;102238.55;1807653;79;26271;-71
2021/05/28 00:06:19;;;;;;;5.27;4.77;;;;;;;13.04;100.00;102244.17;1807456;79;26186;-73
2021/05/28 00:08:49;;;;;;;4.73;4.30;;;;;;;12.98;100.00;102246.63;1807707;77;26284;-73
2021/05/28 00:11:19;;;;;;;5.03;4.43;;;;;;;12.85;100.00;102248.47;1766394;81;26789;-71
2021/05/28 00:13:49;;;;;;;5.67;4.67;;;;;;;12.90;100.00;102254.09;1776602;81;26227;-71
2021/05/28 00:16:19;;;;;;;5.17;4.67;;;;;;;13.03;100.00;102249.45;1766736;81;26277;-71
2021/05/28 00:18:48;;;;;;;5.90;4.70;;;;;;;13.11;100.00;102253.72;1776280;81;26215;-73
2021/05/28 00:21:18;;;;;;;6.87;4.40;;;;;;;13.09;100.00;102253.14;1807647;79;26173;-71
2021/05/28 00:23:49;;;;;;;4.97;4.03;;;;;;;13.07;100.00;102249.76;1807581;79;26641;-73
2021/05/28 00:26:20;;;;;;;4.83;4.33;;;;;;;13.03;100.00;102256.43;1766868;81;26246;-71
2021/05/28 00:28:50;;;;;;;5.50;4.40;;;;;;;12.93;100.00;102263.31;1776844;81;26262;-72
2021/05/28 00:31:20;;;;;;;4.43;4.03;;;;;;;12.91;100.00;102253.55;1766259;81;26681;-71
2021/05/28 00:33:50;;;;;;;6.83;4.50;;;;;;;12.89;100.00;102258.53;1776519;81;26340;-72
2021/05/28 00:36:20;;;;;;;5.03;4.10;;;;;;;12.94;100.00;102259.42;1807088;79;26251;-72
2021/05/28 00:38:50;;;;;;;4.60;4.00;;;;;;;12.99;100.00;102260.02;1765204;81;26764;-73
2021/05/28 00:41:19;;;;;;;5.43;4.87;;;;;;;12.99;100.00;102265.59;1776173;81;26258;-73
2021/05/28 00:43:49;;;;;;;5.57;4.90;;;;;;;12.98;100.00;102263.36;1807141;79;26668;-73
2021/05/28 00:46:20;;;;;;;7.23;4.60;;;;;;;13.18;100.00;102255.16;1807599;79;26634;-73
2021/05/28 00:48:52;;;;;;;4.93;4.10;;;;;;;13.15;100.00;102257.66;1807278;79;26178;-72
2021/05/28 00:51:23;;;;;;;5.23;4.47;;;;;;;13.09;100.00;102252.55;1766208;81;26234;-73
2021/05/28 00:53:53;;;;;;;5.60;4.30;;;;;;;13.00;100.00;102261.71;1776957;81;26258;-72
2021/05/28 00:56:26;;;;;;;6.27;4.43;;;;;;;13.01;100.00;102265.61;1807692;79;26182;-73
2021/05/28 00:58:59;;;;;;;4.80;4.13;;;;;;;13.09;100.00;102258.72;1807566;79;26372;-73
2021/05/28 01:01:30;;;;;;;5.60;4.40;;;;;;;12.93;100.00;102262.47;1807589;79;26673;-71
2021/05/28 01:04:00;;;;;;;4.97;4.47;;;;;;;12.86;100.00;102266.89;1767267;81;26340;-71
2021/05/28 01:06:29;;;;;;;7.17;4.13;;;;;;;12.84;100.00;102273.82;1776497;81;26595;-73
2021/05/28 01:08:59;;;;;;;5.83;4.20;;;;;;;12.89;100.00;102287.27;1807524;77;26282;-72
2021/05/28 01:11:29;;;;;;;5.40;4.73;;;;;;;12.97;100.00;102289.56;1766008;81;26285;-72
2021/05/28 01:14:00;;;;;;;6.20;5.20;;;;;;;12.93;100.00;102280.05;1776955;81;26278;-72
2021/05/28 01:16:30;;;;;;;6.97;4.23;;;;;;;12.96;100.00;102275.91;1807595;79;26177;-71
2021/05/28 01:19:00;;;;;;;6.43;4.67;;;;;;;12.85;100.00;102290.30;1767177;81;26754;-71
2021/05/28 01:21:30;;;;;;;5.63;4.40;;;;;;;12.82;100.00;102285.27;1776483;81;26262;-71
2021/05/28 01:24:00;;;;;;;6.40;4.60;;;;;;;12.70;100.00;102297.15;1807612;79;26186;-71
2021/05/28 01:26:30;;;;;;;6.17;5.23;;;;;;;12.60;100.00;102288.67;1765799;81;26238;-71
2021/05/28 01:29:01;;;;;;;7.20;5.27;;;;;;;12.78;100.00;102291.93;1776793;81;26604;-73
2021/05/28 01:31:31;;;;;;;6.90;5.27;;;;;;;12.81;100.00;102291.94;1807555;79;26266;-73
2021/05/28 01:34:01;;;;;;;7.97;5.73;;;;;;;12.71;100.00;102280.69;1807638;79;26597;-71
2021/05/28 01:36:31;;;;;;;7.53;5.80;;;;;;;12.76;100.00;102285.77;1766605;81;26274;-72
2021/05/28 01:39:01;;;;;;;5.83;4.57;;;;;;;12.84;100.00;102287.77;1776754;81;26603;-70
2021/05/28 01:41:31;;;;;;;6.10;4.37;;;;;;;12.75;100.00;102290.20;1763966;81;26770;-71
2021/05/28 01:44:01;;;;;;;6.27;5.30;;;;;;;12.61;100.00;102302.36;1776915;81;26229;-73
2021/05/28 01:46:31;;;;;;;6.93;4.90;;;;;;;12.66;100.00;102298.78;1807934;79;26186;-71
2021/05/28 01:49:02;;;;;;;7.00;5.30;;;;;;;12.74;100.00;102297.75;1766764;81;26243;-73
2021/05/28 01:51:33;;;;;;;8.10;5.33;;;;;;;12.50;100.00;102289.41;1776462;81;26187;-71
2021/05/28 01:54:03;;;;;;;8.10;5.97;;;;;;;12.44;100.00;102298.84;1821751;78;26664;-72
2021/05/28 01:56:33;;;;;;;6.03;5.30;;;;;;;12.38;100.00;102306.84;1821615;78;26290;-71
2021/05/28 01:59:06;;;;;;;8.20;4.83;;;;;;;12.55;100.00;102296.43;1821627;78;26679;-71
2021/05/28 02:01:36;;;;;;;5.67;5.07;;;;;;;12.49;100.00;102300.29;1821884;78;26395;-71
2021/05/28 02:04:06;;;;;;;6.90;5.27;;;;;;;12.33;100.00;102304.84;1821534;79;26640;-73
2021/05/28 02:06:36;;;;;;;6.40;5.27;;;;;;;12.51;100.00;102302.24;1807628;79;26220;-73
2021/05/28 02:09:06;;;;;;;6.13;5.33;;;;;;;12.54;100.00;102297.53;1807734;77;26637;-71
2021/05/28 02:11:36;;;;;;;6.07;4.47;;;;;;;12.50;100.00;102301.10;1766872;81;26697;-71
2021/05/28 02:14:07;;;;;;;5.77;4.90;;;;;;;12.53;100.00;102293.63;1776582;81;26235;-72
2021/05/28 02:16:38;;;;;;;5.37;4.60;;;;;;;12.48;100.00;102298.59;1807941;79;26306;-71
2021/05/28 02:19:09;;;;;;;7.10;4.83;;;;;;;12.42;100.00;102291.82;1763972;81;26721;-70
2021/05/28 02:21:39;;;;;;;5.63;4.63;;;;;;;12.41;100.00;102290.16;1775558;81;26257;-70
2021/05/28 02:24:14;;;;;;;8.27;4.83;;;;;;;12.41;100.00;102295.16;1807703;79;26591;-73
2021/05/28 02:26:45;;;;;;;5.37;4.57;;;;;;;12.35;100.00;102290.66;1806190;79;26170;-71
2021/05/28 02:29:17;;;;;;;5.67;4.63;;;;;;;12.36;100.00;102295.67;1807611;79;26174;-73
2021/05/28 02:31:47;;;;;;;7.03;3.90;;;;;;;12.33;100.00;102294.23;1766436;81;26278;-71
2021/05/28 02:34:17;;;;;;;5.47;4.37;;;;;;;12.26;100.00;102294.45;1776875;81;26294;-72
2021/05/28 02:36:46;;;;;;;5.53;4.73;;;;;;;12.27;100.00;102298.09;1807219;79;26287;-70
2021/05/28 02:39:16;;;;;;;6.03;4.57;;;;;;;12.31;100.00;102299.25;1807845;79;26683;-72
2021/05/28 02:41:46;;;;;;;6.00;4.50;;;;;;;12.29;100.00;102293.92;1808670;79;26197;-70
2021/05/28 02:44:16;;;;;;;6.33;3.83;;;;;;;12.30;100.00;102301.19;1807649;79;26182;-71
2021/05/28 02:46:48;;;;;;;7.47;4.27;;;;;;;12.38;100.00;102294.30;1807775;79;26241;-71
2021/05/28 02:49:17;;;;;;;5.67;4.63;;;;;;;12.25;100.00;102293.31;1807603;79;26189;-73
2021/05/28 02:51:47;;;;;;;4.87;4.07;;;;;;;12.30;100.00;102292.83;1766968;80;26231;-73
2021/05/28 02:54:17;;;;;;;4.93;4.20;;;;;;;12.35;100.00;102294.83;1776557;81;26272;-72
2021/05/28 02:56:47;;;;;;;5.43;4.20;;;;;;;12.26;100.00;102299.19;1766463;81;26789;-72
2021/05/28 02:59:17;;;;;;;5.47;4.40;;;;;;;12.26;100.00;102300.03;1776683;81;26234;-72
2021/05/28 03:01:46;;;;;;;5.37;4.77;;;;;;;12.24;100.00;102299.98;1807549;79;26288;-72
2021/05/28 03:04:16;;;;;;;6.00;4.60;;;;;;;12.18;100.00;102298.25;1766591;81;26274;-71
2021/05/28 03:06:46;;;;;;;5.40;4.30;;;;;;;12.29;100.00;102300.05;1776911;81;26239;-73
2021/05/28 03:09:16;;;;;;;4.83;4.20;;;;;;;12.20;100.00;102306.62;1807586;79;26230;-71
2021/05/28 03:11:45;;;;;;;6.37;4.23;;;;;;;12.07;100.00;102305.63;1765919;81;26666;-73
2021/05/28 03:14:15;;;;;;;4.30;3.70;;;;;;;12.00;100.00;102309.17;1776939;81;26276;-73
2021/05/28 03:16:46;;;;;;;6.00;4.53;;;;;;;11.88;100.00;102311.80;1766348;81;26649;-71
2021/05/28 03:19:20;;;;;;;8.30;4.97;;;;;;;11.74;100.00;102308.00;1776460;81;26216;-73
2021/05/28 03:24:48;;;;;;;7.97;5.50;;;;;;;11.57;100.00;102308.56;1755704;81;26243;-71
2021/05/28 03:27:18;;;;;;;6.10;4.83;;;;;;;11.57;100.00;102305.78;1776374;81;26188;-70
2021/05/28 03:29:48;;;;;;;6.13;5.07;;;;;;;11.62;100.00;102307.25;1807964;79;26738;-70
2021/05/28 03:32:18;;;;;;;5.90;5.13;;;;;;;11.62;100.00;102303.08;1764250;81;26309;-72
2021/05/28 03:34:48;;;;;;;7.90;5.37;;;;;;;11.73;100.00;102312.42;1776854;81;26180;-72
2021/05/28 03:37:18;;;;;;;5.83;5.23;;;;;;;11.72;100.00;102307.98;1807285;79;26800;-72
2021/05/28 03:39:48;;;;;;;6.83;5.30;;;;;;;11.59;100.00;102310.55;1807712;79;26684;-71
2021/05/28 03:42:18;;;;;;;5.63;4.83;;;;;;;11.55;100.00;102304.36;1807305;79;26186;-71
2021/05/28 03:44:48;;;;;;;6.90;5.37;;;;;;;11.52;100.00;102310.42;1806918;79;26625;-71
2021/05/28 03:47:18;;;;;;;6.93;5.43;;;;;;;11.50;100.00;102309.30;1807698;79;26182;-73
2021/05/28 03:50:06;;;;;;;7.87;5.90;;;;;;;11.49;100.00;102309.00;1767721;80;33239;-71
2021/05/28 03:52:36;;;;;;;9.30;6.37;;;;;;;11.50;100.00;102308.45;1789415;80;26337;-70
2021/05/28 03:55:09;;;;;;;8.13;5.97;;;;;;;11.53;100.00;102310.72;1789422;80;26308;-71
2021/05/28 03:57:38;;;;;;;8.47;5.93;;;;;;;11.54;100.00;102307.69;1789392;80;26622;-72
2021/05/28 04:00:11;;;;;;;8.70;5.93;;;;;;;11.50;100.00;102309.30;1777960;80;934814;-71
2021/05/28 04:02:40;;;;;;;7.53;6.17;;;;;;;11.48;100.00;102310.09;1780588;80;26251;-72
2021/05/28 04:05:14;;;;;;;7.33;6.33;;;;;;;11.48;100.00;102315.66;1793965;80;26265;-71
2021/05/28 04:07:44;;;;;;;8.90;6.50;;;;;;;11.50;100.00;102308.45;1780658;80;26246;-73
2021/05/28 04:10:14;;;;;;;8.17;6.40;;;;;;;11.60;100.00;102309.43;1793914;80;26355;-73
2021/05/28 04:12:44;;;;;;;7.07;6.33;;;;;;;11.62;100.00;102314.20;1780611;80;26774;-71
2021/05/28 04:15:17;;;;;;;8.60;7.17;;;;;;;11.59;100.00;102316.12;1793980;80;26237;-71
2021/05/28 04:17:47;;;;;;;7.53;6.20;;;;;;;11.55;100.00;102314.10;1780587;80;26738;-71
2021/05/28 04:20:16;;;;;;;8.07;6.70;;;;;;;11.40;100.00;102324.44;1796593;77;26363;-72
2021/05/28 04:22:46;;;;;;;8.43;7.63;;;;;;;11.35;100.00;102317.41;1858295;77;26205;-73
2021/05/28 04:25:16;;;;;;;7.90;7.10;;;;;;;11.37;100.00;102318.85;1858387;77;26208;-71
2021/05/28 04:27:46;;;;;;;7.63;6.93;;;;;;;11.45;100.00;102323.13;1857026;77;26698;-71
2021/05/28 04:30:23;;;;;;;9.37;7.40;;;;;;;11.43;100.00;102327.55;1858367;77;26288;-73
2021/05/28 04:32:50;;;;;;;7.10;6.40;;;;;;;11.38;100.00;102325.27;1857995;77;26201;-72
2021/05/28 04:35:21;;;;;;;7.17;6.47;;;;;;;11.39;100.00;102327.77;1858320;77;26274;-71
2021/05/28 04:37:51;;;;;;;9.70;6.87;;;;;;;11.40;100.00;102327.23;1858259;77;26308;-72
2021/05/28 04:40:21;;;;;;;9.77;6.87;;;;;;;11.53;100.00;102317.67;1858242;77;26271;-72
2021/05/28 04:42:51;;;;;;;8.23;7.10;;;;;;;11.46;100.00;102322.05;1858391;77;26286;-73
2021/05/28 04:45:21;;;;;;;7.50;6.37;;;;;;;11.67;100.00;102318.45;1858099;77;26192;-70
2021/05/28 04:47:51;;;;;;;6.47;5.87;;;;;;;11.46;100.00;102319.27;1858325;77;26642;-72
2021/05/28 04:50:21;;;;;;;7.77;6.53;;;;;;;11.32;100.00;102331.83;1858418;77;26200;-71
2021/05/28 04:52:51;;;;;;;7.53;6.80;;;;;;;11.33;100.00;102335.77;1855513;77;26655;-71
2021/05/28 04:55:20;;;;;;;7.07;6.03;;;;;;;11.29;100.00;102335.13;1857366;77;26214;-70
2021/05/28 04:57:50;;;;;;;7.77;5.60;;;;;;;11.37;100.00;102333.31;1858456;77;26655;-72
2021/05/28 05:00:22;;;;;;;10.67;7.20;;;;;;;11.42;100.00;102341.74;1858399;77;26215;-70
2021/05/28 05:02:52;;;;;;;8.53;7.60;;;;;;;11.45;100.00;102341.22;1858374;77;26270;-72
2021/05/28 05:05:23;;;;;;;7.80;6.90;;;;;;;11.55;100.00;102349.70;1858375;77;26216;-71
2021/05/28 05:07:53;;;;;;;7.70;6.67;;;;;;;11.53;100.00;102344.11;1858208;77;26655;-72
2021/05/28 05:10:22;;;;;;;7.63;6.77;;;;;;;11.60;100.00;102354.50;1858094;77;26204;-72
2021/05/28 05:12:52;;;;;;;7.97;7.27;;;;;;;11.62;100.00;102356.50;1858354;77;26220;-71
2021/05/28 05:15:22;;;;;;;7.60;6.87;;;;;;;11.70;100.00;102358.84;1858237;77;26200;-73
2021/05/28 05:17:52;;;;;;;7.97;6.87;;;;;;;11.84;100.00;102351.31;1858198;77;26281;-71
2021/05/28 05:20:22;;;;;;;10.37;8.67;;;;;;;11.95;100.00;102355.06;1858289;77;26281;-71
2021/05/28 05:22:51;;;;;;;9.53;7.73;;;;;;;11.83;100.00;102352.40;1858571;77;26255;-70
2021/05/28 05:25:23;;;;;;;9.10;7.73;;;;;;;11.76;100.00;102347.58;1858607;77;26269;-72
2021/05/28 05:27:53;;;;;;;8.83;7.90;;;;;;;11.86;100.00;102346.30;1858243;77;26705;-70
2021/05/28 05:30:24;;;;;;;9.70;8.07;;;;;;;11.87;100.00;102351.33;1858340;77;26208;-72
2021/05/28 05:32:54;;;;;;;8.63;7.50;;;;;;;11.89;100.00;102353.87;1858251;77;26694;-73
2021/05/28 05:35:24;;;;;;;10.10;7.97;;;;;;;11.91;100.00;102354.44;1856020;77;26329;-72
2021/05/28 05:37:54;;;;;;;10.33;9.23;;;;;;;11.84;100.00;102360.20;1858220;77;26270;-72
2021/05/28 05:40:23;;;;;;;10.17;8.80;;;;;;;11.90;100.00;102361.94;1858226;77;26216;-71
2021/05/28 05:42:53;;;;;;;10.73;9.00;;;;;;;11.93;100.00;102359.22;1858324;77;26204;-71
2021/05/28 05:45:23;;;;;;;10.27;7.90;;;;;;;12.04;100.00;102356.30;1858293;77;26289;-72
2021/05/28 05:47:53;;;;;;;10.07;8.60;;;;;;;12.02;100.00;102366.88;1857413;77;26204;-71
2021/05/28 05:50:23;;;;;;;9.50;8.50;;;;;;;12.06;100.00;102368.58;1858219;77;26772;-71
2021/05/28 05:52:53;;;;;;;9.20;8.30;;;;;;;12.16;100.00;102361.73;1857715;77;26678;-74
2021/05/28 05:55:24;;;;;;;11.50;7.70;;;;;;;12.23;100.00;102367.97;1858340;77;26635;-72
2021/05/28 05:57:54;;;;;;;9.90;7.53;;;;;;;12.33;100.00;102369.47;1857592;77;26205;-72
2021/05/28 06:00:25;;;;;;;9.30;8.17;;;;;;;12.37;100.00;102369.23;1858212;77;26768;-72
2021/05/28 06:02:55;;;;;;;12.17;9.67;;;;;;;12.49;100.00;102370.52;1858242;77;26196;-71
2021/05/28 06:05:25;;;;;;;12.17;9.63;;;;;;;12.44;100.00;102370.45;1857801;77;26266;-71
2021/05/28 06:07:55;;;;;;;9.30;7.60;;;;;;;12.59;100.00;102368.67;1858401;77;26207;-71
2021/05/28 06:10:25;;;;;;;10.43;8.13;;;;;;;12.78;100.00;102369.16;1858267;77;26655;-71
2021/05/28 06:12:56;;;;;;;12.83;10.80;;;;;;;12.82;100.00;102367.53;1856738;77;26332;-71
2021/05/28 06:15:26;;;;;;;13.97;11.77;;;;;;;12.89;100.00;102370.94;1857541;77;26254;-71
2021/05/28 06:17:56;;;;;;;17.40;12.03;;;;;;;12.95;100.00;102369.05;1858175;77;26768;-71
2021/05/28 06:20:26;;;;;;;16.20;12.83;;;;;;;12.92;100.00;102361.22;1857855;77;26204;-71
2021/05/28 06:22:58;;;;;;;21.17;13.00;;;;;;;12.95;100.00;102366.27;1858257;77;26289;-71
2021/05/28 06:25:29;;;;;;;15.33;12.30;;;;;;;12.94;100.00;102368.20;1857718;77;26220;-71
2021/05/28 06:28:01;;;;;;;15.97;12.93;;;;;;;13.00;100.00;102367.16;1858381;77;26259;-71
2021/05/28 06:30:30;;;;;;;15.10;12.80;;;;;;;13.01;100.00;102366.58;1858409;77;26200;-71
2021/05/28 06:33:05;;;;;;;17.07;13.13;;;;;;;13.26;100.00;102369.66;1858153;77;26188;-71
2021/05/28 06:35:36;;;;;;;16.83;13.60;;;;;;;13.45;100.00;102361.69;1858469;77;26650;-71
2021/05/28 06:38:08;;;;;;;17.53;14.27;;;;;;;13.32;100.00;102359.36;1857909;77;26221;-71
2021/05/28 06:40:39;;;;;;;17.03;13.27;;;;;;;13.27;100.00;102362.94;1858235;77;26694;-71
2021/05/28 06:43:09;;;;;;;15.00;13.07;;;;;;;13.33;100.00;102362.44;1858305;77;26204;-71
2021/05/28 06:45:39;;;;;;;16.63;13.90;;;;;;;13.48;100.00;102359.20;1858304;77;26285;-72
2021/05/28 06:48:10;;;;;;;16.10;13.73;;;;;;;13.55;100.00;102364.02;1858014;77;26219;-70
2021/05/28 06:50:41;;;;;;;18.57;14.83;;;;;;;13.59;100.00;102365.72;1858264;77;26200;-71
2021/05/28 06:53:12;;;;;;;18.73;14.20;;;;;;;13.73;100.00;102359.11;1858185;77;26334;-71
2021/05/28 06:55:42;;;;;;;17.47;13.70;;;;;;;13.82;100.00;102356.09;1858251;77;26205;-72
2021/05/28 06:58:12;;;;;;;16.23;13.80;;;;;;;13.98;100.00;102354.52;1857996;77;26204;-71
2021/05/28 07:00:42;;;;;;;19.37;13.00;;;;;;;14.08;100.00;102355.94;1858197;77;26278;-71
2021/05/28 07:03:12;;;;;;;15.53;13.77;;;;;;;14.17;100.00;102345.08;1858338;77;26324;-72
2021/05/28 07:05:42;;;;;;;16.23;13.50;;;;;;;14.42;100.00;102348.55;1856717;77;26188;-72
2021/05/28 07:08:12;;;;;;;17.70;12.17;;;;;;;14.23;100.00;102348.75;1858242;77;26212;-72
2021/05/28 07:10:42;;;;;;;14.63;12.27;;;;;;;14.42;100.00;102357.78;1858265;77;26216;-73
2021/05/28 07:13:12;;;;;;;13.33;11.83;;;;;;;14.69;100.00;102351.16;1858196;77;26248;-71
2021/05/28 07:15:42;;;;;;;18.67;12.33;;;;;;;14.84;100.00;102351.20;1858126;77;26251;-72
2021/05/28 07:18:12;;;;;;;16.27;11.93;;;;;;;14.91;100.00;102348.96;1858121;77;26319;-73
2021/05/28 07:20:42;;;;;;;16.67;12.30;;;;;;;15.16;100.00;102348.98;1858165;77;26208;-72
2021/05/28 07:23:12;;;;;;;14.97;12.10;;;;;;;15.18;100.00;102349.55;1856533;77;26213;-73
2021/05/28 07:25:41;;;;;;;13.37;10.80;;;;;;;15.29;100.00;102352.62;1858201;77;26289;-72
2021/05/28 07:28:11;;;;;;;12.93;11.53;;;;;;;15.64;100.00;102352.34;1858222;77;26275;-72
2021/05/28 07:30:41;;;;;;;16.50;11.03;;;;;;;15.75;100.00;102348.38;1858212;77;26208;-72
2021/05/28 07:33:11;;;;;;;14.57;12.23;;;;;;;15.71;100.00;102350.08;1858164;77;26255;-73
2021/05/28 07:35:41;;;;;;;16.57;10.97;;;;;;;15.80;100.00;102355.38;1857854;77;26772;-71
2021/05/28 07:38:11;;;;;;;12.97;11.17;;;;;;;15.70;100.00;102353.44;1857660;77;26690;-71
2021/05/28 07:40:41;;;;;;;12.93;11.30;;;;;;;15.85;100.00;102349.77;1858212;77;26322;-72
2021/05/28 07:43:11;;;;;;;15.27;12.10;;;;;;;16.04;100.00;102345.25;1858202;77;26718;-74
2021/05/28 07:45:41;;;;;;;12.40;10.70;;;;;;;16.22;100.00;102352.16;1858358;77;26200;-73
2021/05/28 07:48:11;;;;;;;12.70;11.00;;;;;;;16.23;100.00;102355.25;1857988;77;26212;-74
2021/05/28 07:50:48;;;;;;;12.83;11.43;;;;;;;16.21;100.00;102353.31;1858165;77;26196;-71
2021/05/28 07:53:23;;;;;;;14.03;11.40;;;;;;;16.05;100.00;102358.11;1857890;77;26270;-73
2021/05/28 07:55:54;;;;;;;13.10;10.97;;;;;;;16.08;100.00;102355.31;1858115;77;26208;-71
2021/05/28 07:58:24;;;;;;;12.70;11.43;;;;;;;16.12;100.00;102355.86;1858116;77;26670;-72
2021/05/28 08:00:54;;;;;;;13.60;11.40;;;;;;;16.04;100.00;102352.81;1858187;77;26200;-72
2021/05/28 08:03:24;;;;;;;14.77;11.40;;;;;;;16.10;100.00;102358.09;1858078;77;26646;-73
2021/05/28 08:05:54;;;;;;;16.33;12.13;;;;;;;16.12;100.00;102360.07;1858233;77;26627;-71
2021/05/28 08:08:27;;;;;;;14.03;12.27;;;;;;;16.15;100.00;102349.67;1858074;77;26653;-73
2021/05/28 08:10:56;;;;;;;15.63;11.77;;;;;;;16.50;100.00;102350.64;1858443;77;26250;-71
2021/05/28 08:13:26;;;;;;;14.47;11.50;;;;;;;16.73;100.00;102343.78;1857738;76;26719;-74
2021/05/28 08:15:56;;;;;;;12.93;11.53;;;;;;;17.18;100.00;102336.17;1858161;77;26633;-71
2021/05/28 08:18:26;;;;;;;12.70;10.73;;;;;;;17.33;100.00;102327.59;1858148;77;26238;-74
2021/05/28 08:20:57;;;;;;;14.33;12.20;;;;;;;16.99;100.00;102332.38;1858070;77;26202;-70
2021/05/28 08:23:26;;;;;;;13.27;11.27;;;;;;;16.80;100.00;102339.27;1858165;77;26675;-73
2021/05/28 08:25:57;;;;;;;14.47;10.53;;;;;;;17.03;100.00;102330.69;1858151;77;26276;-72
2021/05/28 08:28:27;;;;;;;14.17;10.80;;;;;;;17.09;100.00;102335.95;1858222;77;26200;-73
2021/05/28 08:30:57;;;;;;;17.00;11.93;;;;;;;17.21;100.00;102336.98;1858341;77;26212;-75
2021/05/28 08:33:27;;;;;;;12.87;10.70;;;;;;;17.07;100.00;102333.99;1858355;77;26208;-70
2021/05/28 08:35:57;;;;;;;16.20;10.33;;;;;;;17.15;100.00;102328.34;1858115;77;26202;-71
2021/05/28 08:38:27;;;;;;;12.17;10.60;;;;;;;16.90;100.00;102334.97;1857594;77;26192;-70
2021/05/28 08:40:57;;;;;;;14.03;10.63;;;;;;;17.09;100.00;102330.91;1858350;77;26204;-72
2021/05/28 08:43:26;;;;;;;13.13;10.83;;;;;;;17.04;100.00;102335.16;1858257;77;26335;-72
2021/05/28 08:46:01;;;;;;;12.80;11.37;;;;;;;17.20;100.00;102336.13;1857486;77;26272;-71
2021/05/28 08:48:30;;;;;;;12.77;11.30;;;;;;;17.34;100.00;102336.86;1858269;77;26203;-71
2021/05/28 08:51:00;;;;;;;16.80;11.57;;;;;;;17.39;100.00;102332.61;1858233;77;26272;-71
2021/05/28 08:53:30;;;;;;;16.27;12.53;;;;;;;17.52;100.00;102331.36;1858336;77;26210;-73
2021/05/28 08:56:00;;;;;;;13.67;11.47;;;;;;;17.81;100.00;102320.69;1858231;77;26330;-71
2021/05/28 08:58:30;;;;;;;14.43;12.00;;;;;;;17.94;100.00;102319.97;1858256;77;26266;-71
2021/05/28 09:01:00;;;;;;;13.93;12.37;;;;;;;17.94;100.00;102319.97;1858238;77;26207;-75
2021/05/28 09:03:32;;;;;;;14.53;13.03;;;;;;;17.79;100.00;102316.78;1858394;77;26198;-73
2021/05/28 09:06:03;;;;;;;12.63;11.30;;;;;;;17.80;100.00;102308.59;1858274;77;26323;-71
2021/05/28 09:08:36;;;;;;;13.30;11.20;;;;;;;18.23;100.00;102304.45;1857801;77;26371;-73
2021/05/28 09:11:08;;;;;;;15.70;11.80;;;;;;;18.23;100.00;102304.45;1858364;77;24571;-70
2021/05/28 09:13:45;;;;;;;12.90;11.37;;;;;;;18.63;100.00;102306.70;1858479;77;24186;-71
2021/05/28 09:16:17;;;;;;;14.00;10.60;;;;;;;18.63;100.00;102306.70;1858334;77;24154;-73
2021/05/28 09:18:49;;;;;;;11.17;10.07;;;;;;;18.70;100.00;102303.52;1857800;77;24170;-74
2021/05/28 09:21:28;;;;;;;13.30;10.50;;;;;;;18.86;100.00;102307.77;1858332;77;24267;-74
2021/05/28 09:23:57;;;;;;;12.63;11.33;;;;;;;18.88;100.00;102299.84;1857952;77;24142;-74
2021/05/28 09:26:29;;;;;;;12.27;11.07;;;;;;;18.95;100.00;102303.12;1858385;77;24188;-74
2021/05/28 09:29:01;;;;;;;12.53;11.13;;;;;;;19.02;100.00;102300.73;1858039;77;26221;-74
2021/05/28 09:31:33;;;;;;;13.77;10.17;;;;;;;19.24;100.00;102302.91;1858273;77;24153;-71
2021/05/28 09:34:04;;;;;;;11.07;10.07;;;;;;;19.19;100.00;102308.05;1858331;77;24578;-71
2021/05/28 09:36:36;;;;;;;12.37;9.77;;;;;;;19.43;100.00;102303.12;1858336;77;24291;-73
2021/05/28 09:39:10;;;;;;;9.23;7.90;;;;;;;19.23;100.00;102304.87;1858337;77;24138;-73
2021/05/28 09:41:43;;;;;;;8.10;7.30;;;;;;;19.01;100.00;102297.08;1858262;77;24154;-71
2021/05/28 09:44:17;;;;;;;9.53;8.10;;;;;;;19.16;100.00;102303.04;1858362;77;24154;-72
2021/05/28 09:47:04;;;;;;;10.13;8.20;;;;;;;19.15;100.00;102299.11;1858323;77;26697;-71
2021/05/28 09:49:36;;;;;;;9.90;8.67;;;;;;;19.08;100.00;102300.33;1858225;77;24639;-71
2021/05/28 09:52:10;;;;;;;9.97;7.70;;;;;;;19.22;100.00;102295.31;1858294;77;24244;-73
2021/05/28 09:54:42;;;;;;;8.97;7.97;;;;;;;19.29;100.00;102297.19;1858419;77;24581;-71
2021/05/28 09:57:33;;;;;;;11.53;8.17;;;;;;;19.49;100.00;102288.38;1858317;77;24142;-72
2021/05/28 10:00:05;;;;;;;11.50;6.53;;;;;;;19.75;100.00;102295.20;1858216;77;24231;-73
2021/05/28 10:02:40;;;;;;;7.97;6.43;;;;;;;19.68;100.00;102297.58;1858232;77;26666;-72
2021/05/28 10:05:08;;;;;;;8.00;5.63;;;;;;;19.77;100.00;102295.71;1857775;77;24204;-73
2021/05/28 10:07:39;;;;;;;7.63;5.40;;;;;;;19.90;100.00;102286.42;1858208;77;26697;-72
2021/05/28 10:10:10;;;;;;;6.83;5.27;;;;;;;19.73;100.00;102289.03;1858142;77;24240;-72
2021/05/28 10:12:40;;;;;;;6.67;5.80;;;;;;;19.75;100.00;102287.32;1858245;77;24597;-73
2021/05/28 10:15:12;;;;;;;6.70;5.30;;;;;;;19.78;100.00;102282.45;1857583;77;24633;-72
2021/05/28 10:17:42;;;;;;;7.83;5.27;;;;;;;19.70;100.00;102284.02;1858369;77;24138;-73
2021/05/28 10:20:13;;;;;;;5.30;4.80;;;;;;;19.84;100.00;102291.08;1858221;77;24703;-71
2021/05/28 10:22:43;;;;;;;5.97;4.70;;;;;;;19.85;100.00;102285.72;1858211;77;24309;-75
2021/05/28 10:25:14;;;;;;;10.57;5.73;;;;;;;19.90;100.00;102288.41;1858302;77;24200;-73
2021/05/28 10:27:46;;;;;;;9.50;5.07;;;;;;;20.13;100.00;102286.52;1858540;77;24240;-73
2021/05/28 10:30:20;;;;;;;6.00;4.80;;;;;;;19.96;100.00;102283.77;1856986;77;24150;-73
2021/05/28 10:33:21;;;;;;;5.67;4.40;;;;;;;20.27;100.00;102274.66;1858303;77;24147;-73
2021/05/28 10:35:52;;;;;;;5.77;4.10;;;;;;;20.00;100.00;102279.74;1858210;77;26655;-73
2021/05/28 10:38:41;;;;;;;5.50;4.67;;;;;;;20.18;100.00;102276.55;1858272;77;26713;-70
2021/05/28 10:41:39;;;;;;;5.43;4.43;;;;;;;20.42;100.00;102277.15;1858268;77;24146;-72
2021/05/28 10:44:20;;;;;;;8.27;5.17;;;;;;;20.40;100.00;102283.12;1858192;77;26654;-71
2021/05/28 10:46:55;;;;;;;6.60;4.60;;;;;;;20.49;100.00;102278.98;1858253;77;24193;-70
2021/05/28 10:49:43;;;;;;;6.23;3.77;;;;;;;20.54;100.00;102279.44;1817873;78;24244;-74
2021/05/28 10:52:17;;;;;;;5.13;4.43;;;;;;;20.34;100.00;102276.48;1837554;78;24224;-70
2021/05/28 10:54:57;;;;;;;5.33;3.67;;;;;;;20.28;100.00;102275.73;1837788;78;24221;-70
2021/05/28 10:57:36;;;;;;;5.17;4.30;;;;;;;20.10;100.00;102273.05;1837501;78;24160;-70
2021/05/28 11:00:14;;;;;;;5.20;4.13;;;;;;;20.34;100.00;102269.44;1837225;78;24790;-74
2021/05/28 11:02:54;;;;;;;4.67;3.17;;;;;;;20.27;100.00;102270.42;1837234;77;24217;-74
2021/05/28 11:05:50;;;;;;;4.53;3.33;;;;;;;20.36;100.00;102269.39;1838105;77;24147;-73
2021/05/28 11:08:45;;;;;;;5.37;3.37;;;;;;;20.32;100.00;102267.52;1838186;78;24234;-74
2021/05/28 11:12:02;;;;;;;4.87;3.73;;;;;;;20.27;100.00;102271.26;1837815;78;24291;-74
2021/05/28 11:14:35;;;;;;;4.60;4.20;;;;;;;20.33;100.00;102262.11;1814919;76;24155;-73
2021/05/28 11:17:18;;;;;;;4.60;3.40;;;;;;;20.41;100.00;102262.77;1837695;78;26676;-72
2021/05/28 11:20:07;;;;;;;5.83;3.30;;;;;;;20.56;100.00;102258.20;1837715;78;24178;-72
2021/05/28 11:22:42;;;;;;;4.13;3.77;;;;;;;20.43;100.00;102257.66;1838004;77;24218;-72
2021/05/28 11:25:17;;;;;;;3.87;3.57;;;;;;;20.45;100.00;102249.11;1837921;78;24143;-74
2021/05/28 11:27:58;;;;;;;7.03;3.33;;;;;;;20.40;100.00;102257.73;1837776;78;24151;-76
2021/05/28 11:30:52;;;;;;;5.10;3.50;;;;;;;20.38;100.00;102260.02;1837795;78;24156;-73
2021/05/28 11:33:43;;;;;;;4.33;3.63;;;;;;;20.42;100.00;102246.09;1837899;78;24136;-74
2021/05/28 11:36:22;;;;;;;5.30;4.00;;;;;;;20.49;100.00;102258.38;1838007;77;24143;-71